THY7AH LTFM-EPWA
Flight info
| Callsign | THY7AH |
|---|---|
| Flight time | 2h 1m |
| Altitude | 36000 |
| Route | IBLAX1D/35L IBLAX P727 BGS L622 KOMAN DCT KENIN DCT LENOV DCT ORTEB DCT KONZI DCT LOGDA LOGDA6U |
| Aircraft | A320/M-SDE3FGHIRWY/LB1 |
Departure
| Time | 2026-05-01 11:06 |
|---|---|
| Airport | İstanbul Airport (LTFM) |
Arrival
| Time | 2026-05-01 13:07 |
|---|---|
| Airport | Warsaw Chopin Airport (EPWA) |
| Time | Latitude | Longitude | Altitude | Speed | Heading |
|---|---|---|---|---|---|
| 2026-05-01 10:40 | 41.25471 | 28.73645 | 334 ft | 0 kts | 89° |
| 2026-05-01 10:46 | 41.25471 | 28.73644 | 334 ft | 0 kts | 89° |
| 2026-05-01 10:48 | 41.25471 | 28.73646 | 334 ft | 0 kts | 89° |
| 2026-05-01 10:54 | 41.25471 | 28.73645 | 334 ft | 1 kts | 89° |
| 2026-05-01 10:54 | 41.25469 | 28.73614 | 334 ft | 4 kts | 71° |
| 2026-05-01 10:55 | 41.25456 | 28.73587 | 331 ft | 4 kts | 22° |
| 2026-05-01 10:55 | 41.25444 | 28.73583 | 331 ft | 3 kts | 359° |
| 2026-05-01 10:59 | 41.25445 | 28.73583 | 331 ft | 1 kts | 359° |
| 2026-05-01 10:59 | 41.25457 | 28.73582 | 331 ft | 3 kts | 359° |
| 2026-05-01 10:59 | 41.25492 | 28.73581 | 333 ft | 7 kts | 359° |
| 2026-05-01 11:00 | 41.25553 | 28.73579 | 330 ft | 10 kts | 359° |
| 2026-05-01 11:00 | 41.25610 | 28.73548 | 334 ft | 7 kts | 274° |
| 2026-05-01 11:00 | 41.25611 | 28.73473 | 334 ft | 9 kts | 271° |
| 2026-05-01 11:00 | 41.25610 | 28.73379 | 334 ft | 11 kts | 268° |
| 2026-05-01 11:01 | 41.25619 | 28.73271 | 330 ft | 12 kts | 305° |
| 2026-05-01 11:01 | 41.25704 | 28.73249 | 334 ft | 13 kts | 358° |
| 2026-05-01 11:01 | 41.25802 | 28.73246 | 332 ft | 15 kts | 359° |
| 2026-05-01 11:01 | 41.25908 | 28.73244 | 334 ft | 15 kts | 359° |
| 2026-05-01 11:02 | 41.26006 | 28.73242 | 330 ft | 13 kts | 358° |
| 2026-05-01 11:02 | 41.26089 | 28.73239 | 332 ft | 11 kts | 359° |
| 2026-05-01 11:02 | 41.26140 | 28.73238 | 332 ft | 6 kts | 359° |
| 2026-05-01 11:02 | 41.26174 | 28.73237 | 331 ft | 4 kts | 359° |
| 2026-05-01 11:03 | 41.26208 | 28.73218 | 330 ft | 7 kts | 308° |
| 2026-05-01 11:03 | 41.26217 | 28.73134 | 332 ft | 11 kts | 268° |
| 2026-05-01 11:03 | 41.26215 | 28.73049 | 334 ft | 5 kts | 269° |
| 2026-05-01 11:03 | 41.26215 | 28.73009 | 334 ft | 4 kts | 269° |
| 2026-05-01 11:04 | 41.26215 | 28.72980 | 334 ft | 5 kts | 269° |
| 2026-05-01 11:04 | 41.26214 | 28.72873 | 334 ft | 19 kts | 269° |
| 2026-05-01 11:04 | 41.26212 | 28.72662 | 334 ft | 21 kts | 270° |
| 2026-05-01 11:04 | 41.26226 | 28.72532 | 330 ft | 10 kts | 320° |
| 2026-05-01 11:05 | 41.26257 | 28.72525 | 332 ft | 0 kts | 358° |
| 2026-05-01 11:05 | 41.26272 | 28.72524 | 334 ft | 9 kts | 358° |
| 2026-05-01 11:05 | 41.26486 | 28.72521 | 331 ft | 60 kts | 359° |
| 2026-05-01 11:05 | 41.27072 | 28.72506 | 331 ft | 108 kts | 358° |
| 2026-05-01 11:06 | 41.27954 | 28.72490 | 385 ft | 141 kts | 359° |
| 2026-05-01 11:06 | 41.28944 | 28.72493 | 1017 ft | 142 kts | 1° |
| 2026-05-01 11:06 | 41.29950 | 28.72376 | 1675 ft | 148 kts | 359° |
| 2026-05-01 11:07 | 41.32201 | 28.72260 | 2496 ft | 183 kts | 6° |
| 2026-05-01 11:07 | 41.33558 | 28.72332 | 2887 ft | 207 kts | 6° |
| 2026-05-01 11:07 | 41.35053 | 28.72406 | 3497 ft | 220 kts | 6° |
| 2026-05-01 11:07 | 41.36582 | 28.72462 | 4305 ft | 225 kts | 5° |
| 2026-05-01 11:08 | 41.38176 | 28.72410 | 4997 ft | 236 kts | 353° |
| 2026-05-01 11:08 | 41.39763 | 28.71598 | 5503 ft | 252 kts | 339° |
| 2026-05-01 11:08 | 41.42984 | 28.69528 | 7094 ft | 262 kts | 337° |
| 2026-05-01 11:09 | 41.44639 | 28.68465 | 7871 ft | 265 kts | 338° |
| 2026-05-01 11:09 | 41.46308 | 28.67395 | 8715 ft | 268 kts | 336° |
| 2026-05-01 11:09 | 41.48009 | 28.66303 | 9424 ft | 275 kts | 335° |
| 2026-05-01 11:10 | 41.51525 | 28.64044 | 10619 ft | 294 kts | 334° |
| 2026-05-01 11:10 | 41.53445 | 28.62811 | 10780 ft | 317 kts | 334° |
| 2026-05-01 11:10 | 41.55482 | 28.61505 | 11178 ft | 329 kts | 333° |
| 2026-05-01 11:10 | 41.57459 | 28.59927 | 11780 ft | 334 kts | 322° |
| 2026-05-01 11:11 | 41.59151 | 28.57825 | 12538 ft | 333 kts | 311° |
| 2026-05-01 11:11 | 41.60715 | 28.55523 | 13201 ft | 337 kts | 311° |
| 2026-05-01 11:11 | 41.62302 | 28.53196 | 13874 ft | 340 kts | 311° |
| 2026-05-01 11:11 | 41.63904 | 28.50849 | 14481 ft | 343 kts | 311° |
| 2026-05-01 11:12 | 41.65603 | 28.48591 | 15051 ft | 347 kts | 315° |
| 2026-05-01 11:12 | 41.67399 | 28.46405 | 15620 ft | 350 kts | 316° |
| 2026-05-01 11:12 | 41.69235 | 28.44241 | 16203 ft | 353 kts | 317° |
| 2026-05-01 11:12 | 41.71089 | 28.42078 | 16820 ft | 353 kts | 316° |
| 2026-05-01 11:13 | 41.72944 | 28.39910 | 17435 ft | 355 kts | 316° |
| 2026-05-01 11:13 | 41.74807 | 28.37720 | 17962 ft | 359 kts | 316° |
| 2026-05-01 11:13 | 41.76688 | 28.35492 | 18483 ft | 363 kts | 316° |
| 2026-05-01 11:13 | 41.78584 | 28.33236 | 18963 ft | 366 kts | 316° |
| 2026-05-01 11:14 | 41.80491 | 28.30959 | 19481 ft | 368 kts | 316° |
| 2026-05-01 11:14 | 41.82409 | 28.28668 | 19998 ft | 371 kts | 315° |
| 2026-05-01 11:14 | 41.84341 | 28.26360 | 20513 ft | 373 kts | 315° |
| 2026-05-01 11:14 | 41.86262 | 28.24063 | 20980 ft | 376 kts | 315° |
| 2026-05-01 11:15 | 41.88220 | 28.21720 | 21454 ft | 379 kts | 315° |
| 2026-05-01 11:15 | 41.90193 | 28.19358 | 21934 ft | 381 kts | 315° |
| 2026-05-01 11:15 | 41.92178 | 28.16983 | 22401 ft | 383 kts | 315° |
| 2026-05-01 11:15 | 41.94175 | 28.14594 | 22852 ft | 386 kts | 315° |
| 2026-05-01 11:16 | 41.96184 | 28.12186 | 23305 ft | 388 kts | 315° |
| 2026-05-01 11:16 | 41.98202 | 28.09766 | 23735 ft | 390 kts | 315° |
| 2026-05-01 11:16 | 42.00230 | 28.07329 | 24139 ft | 393 kts | 315° |
| 2026-05-01 11:16 | 42.02277 | 28.04864 | 24491 ft | 395 kts | 315° |
| 2026-05-01 11:17 | 42.04332 | 28.02388 | 24849 ft | 398 kts | 315° |
| 2026-05-01 11:17 | 42.06396 | 27.99898 | 25202 ft | 400 kts | 315° |
| 2026-05-01 11:17 | 42.08476 | 27.97381 | 25578 ft | 402 kts | 315° |
| 2026-05-01 11:17 | 42.10562 | 27.94855 | 25917 ft | 404 kts | 315° |
| 2026-05-01 11:18 | 42.12664 | 27.92314 | 26259 ft | 407 kts | 315° |
| 2026-05-01 11:18 | 42.14772 | 27.89765 | 26603 ft | 409 kts | 315° |
| 2026-05-01 11:18 | 42.16894 | 27.87196 | 26940 ft | 411 kts | 315° |
| 2026-05-01 11:18 | 42.19028 | 27.84611 | 27279 ft | 413 kts | 315° |
| 2026-05-01 11:19 | 42.21172 | 27.82018 | 27623 ft | 416 kts | 316° |
| 2026-05-01 11:19 | 42.23511 | 27.79685 | 27963 ft | 422 kts | 325° |
| 2026-05-01 11:19 | 42.26086 | 27.77754 | 28327 ft | 425 kts | 328° |
| 2026-05-01 11:19 | 42.28699 | 27.75855 | 28682 ft | 427 kts | 328° |
| 2026-05-01 11:20 | 42.31317 | 27.73950 | 29035 ft | 429 kts | 328° |
| 2026-05-01 11:20 | 42.33951 | 27.72029 | 29373 ft | 431 kts | 328° |
| 2026-05-01 11:20 | 42.36589 | 27.70096 | 29835 ft | 430 kts | 328° |
| 2026-05-01 11:20 | 42.39213 | 27.68170 | 30316 ft | 429 kts | 328° |
| 2026-05-01 11:21 | 42.41834 | 27.66244 | 30714 ft | 428 kts | 328° |
| 2026-05-01 11:21 | 42.44450 | 27.64323 | 31095 ft | 428 kts | 328° |
| 2026-05-01 11:21 | 42.47065 | 27.62398 | 31477 ft | 428 kts | 328° |
| 2026-05-01 11:21 | 42.49677 | 27.60473 | 31889 ft | 427 kts | 328° |
| 2026-05-01 11:22 | 42.52280 | 27.58551 | 32299 ft | 426 kts | 328° |
| 2026-05-01 11:22 | 42.54883 | 27.56629 | 32680 ft | 426 kts | 328° |
| 2026-05-01 11:22 | 42.57487 | 27.54706 | 33056 ft | 426 kts | 328° |
| 2026-05-01 11:22 | 42.59981 | 27.52575 | 33411 ft | 423 kts | 321° |
| 2026-05-01 11:23 | 42.62378 | 27.50235 | 33779 ft | 424 kts | 321° |
| 2026-05-01 11:23 | 42.64763 | 27.47893 | 34149 ft | 424 kts | 321° |
| 2026-05-01 11:23 | 42.67153 | 27.45537 | 34464 ft | 424 kts | 321° |
| 2026-05-01 11:23 | 42.69538 | 27.43184 | 34763 ft | 424 kts | 321° |
| 2026-05-01 11:24 | 42.71923 | 27.40833 | 35046 ft | 423 kts | 321° |
| 2026-05-01 11:24 | 42.74308 | 27.38483 | 35328 ft | 423 kts | 321° |
| 2026-05-01 11:24 | 42.79086 | 27.33778 | 35870 ft | 424 kts | 321° |
| 2026-05-01 11:25 | 42.81473 | 27.31422 | 36125 ft | 424 kts | 321° |
| 2026-05-01 11:25 | 42.86272 | 27.26669 | 36269 ft | 432 kts | 321° |
| 2026-05-01 11:25 | 42.88678 | 27.24278 | 36267 ft | 435 kts | 321° |
| 2026-05-01 11:26 | 42.96054 | 27.16965 | 36269 ft | 437 kts | 321° |
| 2026-05-01 11:27 | 43.00976 | 27.12073 | 36272 ft | 437 kts | 321° |
| 2026-05-01 11:27 | 43.05893 | 27.07176 | 36282 ft | 437 kts | 321° |
| 2026-05-01 11:28 | 43.10814 | 27.02268 | 36278 ft | 438 kts | 322° |
| 2026-05-01 11:28 | 43.15864 | 26.97554 | 36284 ft | 439 kts | 324° |
| 2026-05-01 11:29 | 43.23561 | 26.90687 | 36292 ft | 440 kts | 324° |
| 2026-05-01 11:30 | 43.31190 | 26.83776 | 36313 ft | 440 kts | 324° |
| 2026-05-01 11:30 | 43.36280 | 26.79108 | 36314 ft | 439 kts | 324° |
| 2026-05-01 11:31 | 43.41363 | 26.74445 | 36309 ft | 439 kts | 324° |
| 2026-05-01 11:31 | 43.45595 | 26.70569 | 36312 ft | 439 kts | 324° |
| 2026-05-01 11:32 | 43.50678 | 26.65901 | 36311 ft | 439 kts | 324° |
| 2026-05-01 11:32 | 43.55760 | 26.61223 | 36313 ft | 439 kts | 324° |
| 2026-05-01 11:33 | 43.60835 | 26.56542 | 36314 ft | 439 kts | 324° |
| 2026-05-01 11:33 | 43.65914 | 26.51864 | 36318 ft | 439 kts | 324° |
| 2026-05-01 11:34 | 43.70984 | 26.47161 | 36316 ft | 439 kts | 324° |
| 2026-05-01 11:34 | 43.76051 | 26.42456 | 36318 ft | 439 kts | 325° |
| 2026-05-01 11:35 | 43.81120 | 26.37751 | 36322 ft | 438 kts | 325° |
| 2026-05-01 11:35 | 43.86181 | 26.33042 | 36322 ft | 438 kts | 325° |
| 2026-05-01 11:36 | 43.91238 | 26.28323 | 36321 ft | 438 kts | 324° |
| 2026-05-01 11:36 | 43.96296 | 26.23588 | 36328 ft | 438 kts | 324° |
| 2026-05-01 11:37 | 44.01370 | 26.18892 | 36322 ft | 438 kts | 326° |
| 2026-05-01 11:37 | 44.06509 | 26.14323 | 36322 ft | 439 kts | 326° |
| 2026-05-01 11:38 | 44.11664 | 26.09773 | 36334 ft | 439 kts | 326° |
| 2026-05-01 11:38 | 44.16806 | 26.05189 | 36331 ft | 439 kts | 326° |
| 2026-05-01 11:39 | 44.21946 | 26.00573 | 36326 ft | 439 kts | 326° |
| 2026-05-01 11:39 | 44.27084 | 25.95950 | 36330 ft | 439 kts | 326° |
| 2026-05-01 11:40 | 44.32222 | 25.91323 | 36337 ft | 439 kts | 326° |
| 2026-05-01 11:40 | 44.37353 | 25.86680 | 36345 ft | 439 kts | 327° |
| 2026-05-01 11:41 | 44.42479 | 25.82044 | 36344 ft | 439 kts | 327° |
| 2026-05-01 11:41 | 44.47576 | 25.77422 | 36338 ft | 439 kts | 326° |
| 2026-05-01 11:42 | 44.52698 | 25.72769 | 36340 ft | 439 kts | 326° |
| 2026-05-01 11:42 | 44.57817 | 25.68106 | 36328 ft | 438 kts | 327° |
| 2026-05-01 11:43 | 44.62925 | 25.63444 | 36335 ft | 438 kts | 327° |
| 2026-05-01 11:43 | 44.68043 | 25.58764 | 36328 ft | 438 kts | 327° |
| 2026-05-01 11:44 | 44.75711 | 25.51736 | 36322 ft | 438 kts | 327° |
| 2026-05-01 11:44 | 44.80817 | 25.47037 | 36306 ft | 439 kts | 327° |
| 2026-05-01 11:45 | 44.85891 | 25.42358 | 36306 ft | 439 kts | 327° |
| 2026-05-01 11:45 | 44.91001 | 25.37640 | 36320 ft | 439 kts | 327° |
| 2026-05-01 11:46 | 44.96109 | 25.32911 | 36317 ft | 439 kts | 327° |
| 2026-05-01 11:46 | 45.01213 | 25.28182 | 36313 ft | 439 kts | 327° |
| 2026-05-01 11:47 | 45.06314 | 25.23440 | 36312 ft | 439 kts | 327° |
| 2026-05-01 11:47 | 45.11418 | 25.18694 | 36304 ft | 439 kts | 327° |
| 2026-05-01 11:48 | 45.16517 | 25.13934 | 36304 ft | 439 kts | 327° |
| 2026-05-01 11:48 | 45.21581 | 25.09193 | 36312 ft | 438 kts | 327° |
| 2026-05-01 11:49 | 45.26665 | 25.04423 | 36306 ft | 438 kts | 327° |
| 2026-05-01 11:49 | 45.31750 | 24.99647 | 36302 ft | 438 kts | 327° |
| 2026-05-01 11:50 | 45.36838 | 24.94848 | 36310 ft | 438 kts | 327° |
| 2026-05-01 11:50 | 45.41922 | 24.90049 | 36302 ft | 438 kts | 327° |
| 2026-05-01 11:51 | 45.47006 | 24.85244 | 36319 ft | 438 kts | 328° |
| 2026-05-01 11:51 | 45.52077 | 24.80443 | 36308 ft | 438 kts | 328° |
| 2026-05-01 11:52 | 45.57146 | 24.75627 | 36310 ft | 437 kts | 328° |
| 2026-05-01 11:52 | 45.62177 | 24.70833 | 36304 ft | 437 kts | 328° |
| 2026-05-01 11:53 | 45.67241 | 24.66003 | 36308 ft | 437 kts | 328° |
| 2026-05-01 11:53 | 45.72295 | 24.61168 | 36301 ft | 437 kts | 328° |
| 2026-05-01 11:54 | 45.77353 | 24.56321 | 36306 ft | 437 kts | 328° |
| 2026-05-01 11:54 | 45.82413 | 24.51467 | 36304 ft | 437 kts | 328° |
| 2026-05-01 11:55 | 45.87464 | 24.46600 | 36293 ft | 437 kts | 328° |
| 2026-05-01 11:55 | 45.92515 | 24.41724 | 36295 ft | 437 kts | 328° |
| 2026-05-01 11:56 | 45.97563 | 24.36851 | 36293 ft | 437 kts | 329° |
| 2026-05-01 11:56 | 46.02613 | 24.31964 | 36294 ft | 437 kts | 329° |
| 2026-05-01 11:57 | 46.07661 | 24.27054 | 36299 ft | 438 kts | 329° |
| 2026-05-01 11:57 | 46.12713 | 24.22139 | 36297 ft | 438 kts | 329° |
| 2026-05-01 11:58 | 46.17766 | 24.17214 | 36294 ft | 438 kts | 329° |
| 2026-05-01 11:59 | 46.25312 | 24.09822 | 36297 ft | 438 kts | 328° |
| 2026-05-01 11:59 | 46.30362 | 24.04853 | 36299 ft | 439 kts | 328° |
| 2026-05-01 12:00 | 46.37933 | 23.97406 | 36302 ft | 438 kts | 329° |
| 2026-05-01 12:01 | 46.45497 | 23.89950 | 36292 ft | 438 kts | 329° |
| 2026-05-01 12:01 | 46.50500 | 23.84995 | 36296 ft | 438 kts | 329° |
| 2026-05-01 12:02 | 46.55562 | 23.79969 | 36299 ft | 437 kts | 329° |
| 2026-05-01 12:02 | 46.60556 | 23.75008 | 36299 ft | 437 kts | 329° |
| 2026-05-01 12:03 | 46.65577 | 23.70009 | 36294 ft | 437 kts | 329° |
| 2026-05-01 12:03 | 46.70580 | 23.64997 | 36306 ft | 437 kts | 329° |
| 2026-05-01 12:04 | 46.75593 | 23.59970 | 36309 ft | 437 kts | 329° |
| 2026-05-01 12:04 | 46.80597 | 23.54943 | 36312 ft | 437 kts | 329° |
| 2026-05-01 12:05 | 46.85601 | 23.49907 | 36315 ft | 437 kts | 330° |
| 2026-05-01 12:05 | 46.93109 | 23.42337 | 36307 ft | 436 kts | 330° |
| 2026-05-01 12:06 | 46.98099 | 23.37287 | 36319 ft | 435 kts | 330° |
| 2026-05-01 12:06 | 47.03080 | 23.32236 | 36318 ft | 435 kts | 330° |
| 2026-05-01 12:07 | 47.08056 | 23.27179 | 36309 ft | 435 kts | 330° |
| 2026-05-01 12:07 | 47.13027 | 23.22120 | 36308 ft | 435 kts | 331° |
| 2026-05-01 12:08 | 47.17984 | 23.17058 | 36321 ft | 434 kts | 331° |
| 2026-05-01 12:08 | 47.22932 | 23.11982 | 36326 ft | 433 kts | 331° |
| 2026-05-01 12:09 | 47.27877 | 23.06908 | 36332 ft | 433 kts | 331° |
| 2026-05-01 12:09 | 47.32787 | 23.01866 | 36332 ft | 432 kts | 331° |
| 2026-05-01 12:10 | 47.40173 | 22.94229 | 36327 ft | 432 kts | 332° |
| 2026-05-01 12:11 | 47.47550 | 22.86594 | 36346 ft | 431 kts | 332° |
| 2026-05-01 12:11 | 47.52452 | 22.81512 | 36348 ft | 430 kts | 332° |
| 2026-05-01 12:12 | 47.57343 | 22.76432 | 36349 ft | 429 kts | 332° |
| 2026-05-01 12:12 | 47.62234 | 22.71343 | 36332 ft | 429 kts | 333° |
| 2026-05-01 12:13 | 47.67106 | 22.66244 | 36341 ft | 429 kts | 332° |
| 2026-05-01 12:13 | 47.71973 | 22.61126 | 36342 ft | 428 kts | 333° |
| 2026-05-01 12:14 | 47.76015 | 22.56883 | 36345 ft | 428 kts | 333° |
| 2026-05-01 12:14 | 47.80869 | 22.51768 | 36345 ft | 427 kts | 333° |
| 2026-05-01 12:15 | 47.85717 | 22.46661 | 36320 ft | 427 kts | 333° |
| 2026-05-01 12:15 | 47.90562 | 22.41548 | 36334 ft | 426 kts | 333° |
| 2026-05-01 12:16 | 47.95398 | 22.36420 | 36337 ft | 426 kts | 333° |
| 2026-05-01 12:16 | 48.00234 | 22.31286 | 36339 ft | 426 kts | 333° |
| 2026-05-01 12:17 | 48.05054 | 22.26160 | 36341 ft | 425 kts | 333° |
| 2026-05-01 12:17 | 48.09866 | 22.21021 | 36317 ft | 425 kts | 333° |
| 2026-05-01 12:18 | 48.14668 | 22.15872 | 36333 ft | 424 kts | 333° |
| 2026-05-01 12:18 | 48.19435 | 22.10760 | 36337 ft | 424 kts | 333° |
| 2026-05-01 12:19 | 48.24227 | 22.05613 | 36334 ft | 424 kts | 333° |
| 2026-05-01 12:19 | 48.29016 | 22.00447 | 36332 ft | 423 kts | 332° |
| 2026-05-01 12:20 | 48.33795 | 21.95282 | 36314 ft | 423 kts | 332° |
| 2026-05-01 12:20 | 48.38619 | 21.90235 | 36324 ft | 420 kts | 335° |
| 2026-05-01 12:21 | 48.43592 | 21.85684 | 36331 ft | 418 kts | 337° |
| 2026-05-01 12:21 | 48.48613 | 21.81239 | 36333 ft | 418 kts | 337° |
| 2026-05-01 12:22 | 48.53596 | 21.76699 | 36333 ft | 419 kts | 336° |
| 2026-05-01 12:22 | 48.58553 | 21.72075 | 36328 ft | 419 kts | 336° |
| 2026-05-01 12:23 | 48.63509 | 21.67444 | 36333 ft | 419 kts | 336° |
| 2026-05-01 12:23 | 48.68460 | 21.62816 | 36339 ft | 418 kts | 336° |
| 2026-05-01 12:24 | 48.73409 | 21.58182 | 36333 ft | 418 kts | 336° |
| 2026-05-01 12:24 | 48.78323 | 21.53588 | 36335 ft | 418 kts | 336° |
| 2026-05-01 12:25 | 48.85750 | 21.46618 | 36294 ft | 418 kts | 336° |
| 2026-05-01 12:26 | 48.90689 | 21.41966 | 36307 ft | 418 kts | 336° |
| 2026-05-01 12:26 | 48.98091 | 21.34971 | 36315 ft | 418 kts | 336° |
| 2026-05-01 12:27 | 49.05502 | 21.27946 | 36322 ft | 418 kts | 336° |
| 2026-05-01 12:28 | 49.12903 | 21.20896 | 36288 ft | 418 kts | 335° |
| 2026-05-01 12:29 | 49.20294 | 21.13834 | 36300 ft | 418 kts | 335° |
| 2026-05-01 12:29 | 49.27690 | 21.06754 | 36320 ft | 418 kts | 335° |
| 2026-05-01 12:30 | 49.35172 | 21.00155 | 36315 ft | 407 kts | 347° |
| 2026-05-01 12:31 | 49.40485 | 20.97158 | 36324 ft | 406 kts | 346° |
| 2026-05-01 12:31 | 49.45797 | 20.94146 | 36289 ft | 407 kts | 346° |
| 2026-05-01 12:32 | 49.51113 | 20.91115 | 36300 ft | 407 kts | 346° |
| 2026-05-01 12:32 | 49.59076 | 20.86569 | 36311 ft | 406 kts | 346° |
| 2026-05-01 12:33 | 49.64382 | 20.83530 | 36314 ft | 407 kts | 346° |
| 2026-05-01 12:33 | 49.69684 | 20.80478 | 36313 ft | 407 kts | 346° |
| 2026-05-01 12:34 | 49.74986 | 20.77430 | 36314 ft | 406 kts | 346° |
| 2026-05-01 12:34 | 49.80288 | 20.74379 | 36292 ft | 407 kts | 346° |
| 2026-05-01 12:35 | 49.85594 | 20.71306 | 36295 ft | 407 kts | 346° |
| 2026-05-01 12:35 | 49.90907 | 20.68229 | 36303 ft | 407 kts | 346° |
| 2026-05-01 12:36 | 49.96220 | 20.65147 | 36300 ft | 408 kts | 346° |
| 2026-05-01 12:36 | 50.01496 | 20.62082 | 36307 ft | 408 kts | 346° |
| 2026-05-01 12:37 | 50.06815 | 20.58973 | 36309 ft | 408 kts | 346° |
| 2026-05-01 12:37 | 50.12261 | 20.57262 | 36313 ft | 395 kts | 4° |
| 2026-05-01 12:38 | 50.17713 | 20.57744 | 36285 ft | 392 kts | 7° |
| 2026-05-01 12:38 | 50.23166 | 20.58318 | 36283 ft | 393 kts | 7° |
| 2026-05-01 12:39 | 50.28624 | 20.58879 | 36293 ft | 394 kts | 7° |
| 2026-05-01 12:39 | 50.34095 | 20.59434 | 36302 ft | 394 kts | 7° |
| 2026-05-01 12:40 | 50.39565 | 20.59997 | 36301 ft | 394 kts | 7° |
| 2026-05-01 12:40 | 50.45034 | 20.60564 | 36319 ft | 393 kts | 7° |
| 2026-05-01 12:41 | 50.50473 | 20.61127 | 36336 ft | 390 kts | 7° |
| 2026-05-01 12:41 | 50.55877 | 20.61694 | 36334 ft | 388 kts | 7° |
| 2026-05-01 12:42 | 50.61264 | 20.62252 | 36330 ft | 387 kts | 7° |
| 2026-05-01 12:42 | 50.66635 | 20.62822 | 36321 ft | 387 kts | 7° |
| 2026-05-01 12:43 | 50.72017 | 20.63392 | 36187 ft | 387 kts | 7° |
| 2026-05-01 12:43 | 50.74731 | 20.63676 | 35297 ft | 395 kts | 7° |
| 2026-05-01 12:43 | 50.77490 | 20.63968 | 34528 ft | 399 kts | 7° |
| 2026-05-01 12:44 | 50.80255 | 20.64258 | 33909 ft | 397 kts | 7° |
| 2026-05-01 12:44 | 50.82986 | 20.64544 | 33181 ft | 397 kts | 7° |
| 2026-05-01 12:44 | 50.88447 | 20.65115 | 32149 ft | 389 kts | 8° |
| 2026-05-01 12:45 | 50.93797 | 20.65685 | 31089 ft | 382 kts | 8° |
| 2026-05-01 12:45 | 50.96435 | 20.65962 | 30596 ft | 378 kts | 8° |
| 2026-05-01 12:45 | 50.99050 | 20.66236 | 30061 ft | 375 kts | 8° |
| 2026-05-01 12:46 | 51.01642 | 20.66508 | 29494 ft | 371 kts | 8° |
| 2026-05-01 12:46 | 51.04212 | 20.66781 | 28935 ft | 368 kts | 8° |
| 2026-05-01 12:46 | 51.06759 | 20.67054 | 28384 ft | 365 kts | 8° |
| 2026-05-01 12:46 | 51.09287 | 20.67328 | 27845 ft | 362 kts | 9° |
| 2026-05-01 12:47 | 51.11788 | 20.67598 | 27314 ft | 359 kts | 8° |
| 2026-05-01 12:47 | 51.14273 | 20.67862 | 26797 ft | 356 kts | 8° |
| 2026-05-01 12:47 | 51.16739 | 20.68125 | 26290 ft | 354 kts | 8° |
| 2026-05-01 12:47 | 51.19189 | 20.68387 | 25791 ft | 352 kts | 8° |
| 2026-05-01 12:48 | 51.21622 | 20.68651 | 25297 ft | 350 kts | 9° |
| 2026-05-01 12:48 | 51.24044 | 20.68914 | 24814 ft | 348 kts | 9° |
| 2026-05-01 12:48 | 51.26453 | 20.69178 | 24340 ft | 347 kts | 9° |
| 2026-05-01 12:48 | 51.28825 | 20.69669 | 23868 ft | 341 kts | 17° |
| 2026-05-01 12:49 | 51.31073 | 20.70796 | 23318 ft | 338 kts | 21° |
| 2026-05-01 12:49 | 51.33294 | 20.71989 | 22771 ft | 336 kts | 21° |
| 2026-05-01 12:49 | 51.35509 | 20.73174 | 22235 ft | 334 kts | 21° |
| 2026-05-01 12:49 | 51.37682 | 20.74334 | 21715 ft | 333 kts | 21° |
| 2026-05-01 12:50 | 51.39901 | 20.75515 | 21185 ft | 331 kts | 21° |
| 2026-05-01 12:50 | 51.42052 | 20.76659 | 20680 ft | 329 kts | 21° |
| 2026-05-01 12:50 | 51.44212 | 20.77812 | 20168 ft | 316 kts | 21° |
| 2026-05-01 12:50 | 51.46233 | 20.78891 | 19684 ft | 303 kts | 21° |
| 2026-05-01 12:51 | 51.48200 | 20.79944 | 19149 ft | 294 kts | 21° |
| 2026-05-01 12:51 | 51.50118 | 20.80976 | 18553 ft | 288 kts | 21° |
| 2026-05-01 12:51 | 51.53857 | 20.82998 | 17203 ft | 279 kts | 21° |
| 2026-05-01 12:52 | 51.55679 | 20.83987 | 16563 ft | 275 kts | 21° |
| 2026-05-01 12:52 | 51.59277 | 20.85933 | 15300 ft | 270 kts | 20° |
| 2026-05-01 12:52 | 51.61049 | 20.86893 | 14689 ft | 267 kts | 21° |
| 2026-05-01 12:53 | 51.64515 | 20.88844 | 13585 ft | 259 kts | 21° |
| 2026-05-01 12:53 | 51.66195 | 20.89806 | 13054 ft | 254 kts | 21° |
| 2026-05-01 12:53 | 51.67840 | 20.90750 | 12535 ft | 249 kts | 21° |
| 2026-05-01 12:54 | 51.69463 | 20.91678 | 12021 ft | 246 kts | 20° |
| 2026-05-01 12:54 | 51.72632 | 20.93488 | 11083 ft | 236 kts | 20° |
| 2026-05-01 12:54 | 51.74171 | 20.94370 | 10606 ft | 234 kts | 20° |
| 2026-05-01 12:55 | 51.77216 | 20.96111 | 9579 ft | 231 kts | 20° |
| 2026-05-01 12:55 | 51.78731 | 20.96976 | 9052 ft | 230 kts | 19° |
| 2026-05-01 12:55 | 51.80234 | 20.97837 | 8536 ft | 229 kts | 20° |
| 2026-05-01 12:56 | 51.81722 | 20.98692 | 8067 ft | 227 kts | 19° |
| 2026-05-01 12:56 | 51.83186 | 20.99535 | 7691 ft | 221 kts | 19° |
| 2026-05-01 12:56 | 51.84615 | 21.00359 | 7323 ft | 216 kts | 19° |
| 2026-05-01 12:56 | 51.86020 | 21.01169 | 6951 ft | 212 kts | 19° |
| 2026-05-01 12:57 | 51.87391 | 21.01963 | 6580 ft | 210 kts | 19° |
| 2026-05-01 12:57 | 51.89673 | 21.03276 | 5932 ft | 208 kts | 19° |
| 2026-05-01 12:57 | 51.91051 | 21.04066 | 5550 ft | 213 kts | 18° |
| 2026-05-01 12:58 | 51.92461 | 21.04880 | 5173 ft | 218 kts | 18° |
| 2026-05-01 12:58 | 51.93902 | 21.05714 | 4783 ft | 221 kts | 18° |
| 2026-05-01 12:58 | 51.95370 | 21.06561 | 4322 ft | 228 kts | 19° |
| 2026-05-01 12:59 | 51.98318 | 21.08264 | 3699 ft | 212 kts | 19° |
| 2026-05-01 12:59 | 51.99658 | 21.09040 | 3596 ft | 199 kts | 18° |
| 2026-05-01 12:59 | 52.02260 | 21.09110 | 3336 ft | 193 kts | 341° |
| 2026-05-01 13:00 | 52.04606 | 21.07136 | 2823 ft | 183 kts | 333° |
| 2026-05-01 13:00 | 52.05696 | 21.06189 | 2580 ft | 172 kts | 333° |
| 2026-05-01 13:01 | 52.07672 | 21.04472 | 2149 ft | 147 kts | 334° |
| 2026-05-01 13:01 | 52.08544 | 21.03713 | 1947 ft | 139 kts | 334° |
| 2026-05-01 13:01 | 52.10180 | 21.02290 | 1592 ft | 132 kts | 334° |
| 2026-05-01 13:02 | 52.10999 | 21.01576 | 1417 ft | 130 kts | 335° |
| 2026-05-01 13:07 | 52.17494 | 20.96826 | 335 ft | 0 kts | 173° |